sensor_id;sensor_type;location;lat;lon;timestamp;P1;durP1;ratioP1;P2;durP2;ratioP2
13345;SDS011;6742;48.036;15.780;2022-09-28T00:00:53;5.00;;;4.80;;
13345;SDS011;6742;48.036;15.780;2022-09-28T00:03:20;4.77;;;4.57;;
13345;SDS011;6742;48.036;15.780;2022-09-28T00:05:47;1.70;;;1.60;;
13345;SDS011;6742;48.036;15.780;2022-09-28T00:08:17;1.83;;;1.73;;
13345;SDS011;6742;48.036;15.780;2022-09-28T00:10:45;1.63;;;1.53;;
13345;SDS011;6742;48.036;15.780;2022-09-28T00:13:20;1.87;;;1.77;;
13345;SDS011;6742;48.036;15.780;2022-09-28T00:15:47;2.43;;;2.17;;
13345;SDS011;6742;48.036;15.780;2022-09-28T00:18:23;2.10;;;1.73;;
13345;SDS011;6742;48.036;15.780;2022-09-28T00:20:58;3.03;;;2.93;;
13345;SDS011;6742;48.036;15.780;2022-09-28T00:23:25;4.03;;;3.87;;
13345;SDS011;6742;48.036;15.780;2022-09-28T00:25:54;3.10;;;2.90;;
13345;SDS011;6742;48.036;15.780;2022-09-28T00:28:23;2.07;;;1.97;;
13345;SDS011;6742;48.036;15.780;2022-09-28T00:30:53;2.53;;;2.43;;
13345;SDS011;6742;48.036;15.780;2022-09-28T00:33:21;4.27;;;4.10;;
13345;SDS011;6742;48.036;15.780;2022-09-28T00:35:53;1.93;;;1.67;;
13345;SDS011;6742;48.036;15.780;2022-09-28T00:38:21;1.43;;;1.43;;
13345;SDS011;6742;48.036;15.780;2022-09-28T00:40:51;1.47;;;1.43;;
13345;SDS011;6742;48.036;15.780;2022-09-28T00:43:21;1.20;;;1.20;;
13345;SDS011;6742;48.036;15.780;2022-09-28T00:45:50;1.33;;;1.30;;
13345;SDS011;6742;48.036;15.780;2022-09-28T00:48:22;1.77;;;1.67;;
13345;SDS011;6742;48.036;15.780;2022-09-28T00:50:52;1.50;;;1.40;;
13345;SDS011;6742;48.036;15.780;2022-09-28T00:53:20;1.60;;;1.37;;
13345;SDS011;6742;48.036;15.780;2022-09-28T00:55:51;3.17;;;3.07;;
13345;SDS011;6742;48.036;15.780;2022-09-28T00:58:22;1.87;;;1.70;;
13345;SDS011;6742;48.036;15.780;2022-09-28T01:00:53;1.10;;;1.10;;
13345;SDS011;6742;48.036;15.780;2022-09-28T01:03:21;1.40;;;1.40;;
13345;SDS011;6742;48.036;15.780;2022-09-28T01:05:48;1.87;;;1.53;;
13345;SDS011;6742;48.036;15.780;2022-09-28T01:08:19;1.33;;;1.33;;
13345;SDS011;6742;48.036;15.780;2022-09-28T01:10:48;1.63;;;1.33;;
13345;SDS011;6742;48.036;15.780;2022-09-28T01:13:16;2.03;;;1.93;;
13345;SDS011;6742;48.036;15.780;2022-09-28T01:15:48;1.77;;;1.67;;
13345;SDS011;6742;48.036;15.780;2022-09-28T01:18:21;1.67;;;1.57;;
13345;SDS011;6742;48.036;15.780;2022-09-28T01:20:58;3.23;;;3.13;;
13345;SDS011;6742;48.036;15.780;2022-09-28T01:23:42;1.60;;;1.50;;
13345;SDS011;6742;48.036;15.780;2022-09-28T01:29:24;1.90;;;1.80;;
13345;SDS011;6742;48.036;15.780;2022-09-28T01:32:10;1.57;;;1.43;;
13345;SDS011;6742;48.036;15.780;2022-09-28T01:34:42;2.40;;;2.03;;
13345;SDS011;6742;48.036;15.780;2022-09-28T01:37:13;1.40;;;1.30;;
13345;SDS011;6742;48.036;15.780;2022-09-28T01:39:44;1.47;;;1.37;;
13345;SDS011;6742;48.036;15.780;2022-09-28T01:42:16;1.67;;;1.57;;
13345;SDS011;6742;48.036;15.780;2022-09-28T01:44:47;2.20;;;2.10;;
13345;SDS011;6742;48.036;15.780;2022-09-28T01:47:19;3.83;;;3.63;;
13345;SDS011;6742;48.036;15.780;2022-09-28T01:49:49;3.07;;;2.97;;
13345;SDS011;6742;48.036;15.780;2022-09-28T01:52:21;4.47;;;4.33;;
13345;SDS011;6742;48.036;15.780;2022-09-28T01:54:53;2.67;;;2.57;;
13345;SDS011;6742;48.036;15.780;2022-09-28T01:57:27;2.00;;;1.90;;
13345;SDS011;6742;48.036;15.780;2022-09-28T01:59:59;1.70;;;1.60;;
13345;SDS011;6742;48.036;15.780;2022-09-28T02:02:30;1.60;;;1.37;;
13345;SDS011;6742;48.036;15.780;2022-09-28T02:05:01;1.90;;;1.80;;
13345;SDS011;6742;48.036;15.780;2022-09-28T02:07:33;1.67;;;1.57;;
13345;SDS011;6742;48.036;15.780;2022-09-28T02:10:05;1.63;;;1.53;;
13345;SDS011;6742;48.036;15.780;2022-09-28T02:12:39;1.57;;;1.47;;
13345;SDS011;6742;48.036;15.780;2022-09-28T02:15:11;1.73;;;1.63;;
13345;SDS011;6742;48.036;15.780;2022-09-28T02:17:42;1.50;;;1.40;;
13345;SDS011;6742;48.036;15.780;2022-09-28T02:20:09;1.70;;;1.60;;
13345;SDS011;6742;48.036;15.780;2022-09-28T02:22:37;2.40;;;2.13;;
13345;SDS011;6742;48.036;15.780;2022-09-28T02:25:09;1.63;;;1.53;;
13345;SDS011;6742;48.036;15.780;2022-09-28T02:27:41;1.37;;;1.33;;
13345;SDS011;6742;48.036;15.780;2022-09-28T02:30:15;1.50;;;1.40;;
13345;SDS011;6742;48.036;15.780;2022-09-28T02:32:44;3.10;;;2.80;;
13345;SDS011;6742;48.036;15.780;2022-09-28T02:35:14;3.80;;;2.13;;
13345;SDS011;6742;48.036;15.780;2022-09-28T02:37:45;2.47;;;2.27;;
13345;SDS011;6742;48.036;15.780;2022-09-28T02:40:13;3.33;;;1.60;;
13345;SDS011;6742;48.036;15.780;2022-09-28T02:42:44;2.50;;;2.40;;
13345;SDS011;6742;48.036;15.780;2022-09-28T02:45:21;2.63;;;2.53;;
13345;SDS011;6742;48.036;15.780;2022-09-28T02:48:07;2.50;;;1.57;;
13345;SDS011;6742;48.036;15.780;2022-09-28T02:50:46;2.57;;;1.30;;
13345;SDS011;6742;48.036;15.780;2022-09-28T02:53:25;2.27;;;1.60;;
13345;SDS011;6742;48.036;15.780;2022-09-28T02:56:19;2.60;;;2.50;;
13345;SDS011;6742;48.036;15.780;2022-09-28T02:59:05;3.57;;;3.37;;
13345;SDS011;6742;48.036;15.780;2022-09-28T03:01:39;7.57;;;7.30;;
13345;SDS011;6742;48.036;15.780;2022-09-28T03:04:16;6.10;;;5.80;;
13345;SDS011;6742;48.036;15.780;2022-09-28T03:06:54;4.00;;;3.83;;
13345;SDS011;6742;48.036;15.780;2022-09-28T03:09:27;5.47;;;5.27;;
13345;SDS011;6742;48.036;15.780;2022-09-28T03:11:59;5.13;;;4.90;;
13345;SDS011;6742;48.036;15.780;2022-09-28T03:14:33;7.80;;;7.50;;
13345;SDS011;6742;48.036;15.780;2022-09-28T03:17:00;8.40;;;8.10;;
13345;SDS011;6742;48.036;15.780;2022-09-28T03:19:28;1.67;;;1.57;;
13345;SDS011;6742;48.036;15.780;2022-09-28T03:21:57;3.70;;;2.40;;
13345;SDS011;6742;48.036;15.780;2022-09-28T03:24:24;6.33;;;6.10;;
13345;SDS011;6742;48.036;15.780;2022-09-28T03:26:51;6.37;;;6.17;;
13345;SDS011;6742;48.036;15.780;2022-09-28T03:29:18;8.07;;;7.70;;
13345;SDS011;6742;48.036;15.780;2022-09-28T03:31:47;3.07;;;2.87;;
13345;SDS011;6742;48.036;15.780;2022-09-28T03:34:14;2.13;;;2.03;;
13345;SDS011;6742;48.036;15.780;2022-09-28T03:36:41;3.00;;;2.87;;
13345;SDS011;6742;48.036;15.780;2022-09-28T03:39:08;3.90;;;3.77;;
13345;SDS011;6742;48.036;15.780;2022-09-28T03:41:35;3.23;;;2.53;;
13345;SDS011;6742;48.036;15.780;2022-09-28T03:44:04;3.70;;;3.50;;
13345;SDS011;6742;48.036;15.780;2022-09-28T03:46:31;6.10;;;5.83;;
13345;SDS011;6742;48.036;15.780;2022-09-28T03:48:59;6.17;;;5.90;;
13345;SDS011;6742;48.036;15.780;2022-09-28T03:51:26;3.20;;;3.03;;
13345;SDS011;6742;48.036;15.780;2022-09-28T03:53:53;6.53;;;6.27;;
13345;SDS011;6742;48.036;15.780;2022-09-28T03:56:20;5.53;;;5.33;;
13345;SDS011;6742;48.036;15.780;2022-09-28T03:58:47;2.70;;;2.50;;
13345;SDS011;6742;48.036;15.780;2022-09-28T04:01:14;3.73;;;3.63;;
13345;SDS011;6742;48.036;15.780;2022-09-28T04:03:41;10.63;;;10.10;;
13345;SDS011;6742;48.036;15.780;2022-09-28T04:06:10;12.00;;;11.30;;
13345;SDS011;6742;48.036;15.780;2022-09-28T04:08:37;9.83;;;9.43;;
13345;SDS011;6742;48.036;15.780;2022-09-28T04:11:04;13.93;;;13.33;;
13345;SDS011;6742;48.036;15.780;2022-09-28T04:13:31;9.70;;;8.87;;
13345;SDS011;6742;48.036;15.780;2022-09-28T04:15:59;9.17;;;8.63;;
13345;SDS011;6742;48.036;15.780;2022-09-28T04:18:26;11.03;;;10.33;;
13345;SDS011;6742;48.036;15.780;2022-09-28T04:20:57;4.17;;;3.97;;
13345;SDS011;6742;48.036;15.780;2022-09-28T04:23:32;8.73;;;8.27;;
13345;SDS011;6742;48.036;15.780;2022-09-28T04:25:59;9.77;;;9.27;;
13345;SDS011;6742;48.036;15.780;2022-09-28T04:28:26;18.17;;;17.33;;
13345;SDS011;6742;48.036;15.780;2022-09-28T04:31:12;16.07;;;15.33;;
13345;SDS011;6742;48.036;15.780;2022-09-28T04:33:41;13.23;;;12.57;;
13345;SDS011;6742;48.036;15.780;2022-09-28T04:36:09;16.97;;;16.27;;
13345;SDS011;6742;48.036;15.780;2022-09-28T04:38:40;25.63;;;24.13;;
13345;SDS011;6742;48.036;15.780;2022-09-28T04:41:07;14.20;;;13.33;;
13345;SDS011;6742;48.036;15.780;2022-09-28T04:43:34;16.90;;;15.90;;
13345;SDS011;6742;48.036;15.780;2022-09-28T04:46:01;19.57;;;18.67;;
13345;SDS011;6742;48.036;15.780;2022-09-28T04:48:29;18.07;;;17.23;;
13345;SDS011;6742;48.036;15.780;2022-09-28T04:50:57;18.13;;;17.17;;
13345;SDS011;6742;48.036;15.780;2022-09-28T04:53:25;16.33;;;15.60;;
13345;SDS011;6742;48.036;15.780;2022-09-28T04:55:58;12.30;;;11.67;;
13345;SDS011;6742;48.036;15.780;2022-09-28T04:58:27;18.13;;;17.27;;
13345;SDS011;6742;48.036;15.780;2022-09-28T05:00:56;25.23;;;23.90;;
13345;SDS011;6742;48.036;15.780;2022-09-28T05:03:24;9.17;;;8.80;;
13345;SDS011;6742;48.036;15.780;2022-09-28T05:05:51;14.03;;;13.30;;
13345;SDS011;6742;48.036;15.780;2022-09-28T05:08:20;11.67;;;11.13;;
13345;SDS011;6742;48.036;15.780;2022-09-28T05:10:47;10.53;;;10.10;;
13345;SDS011;6742;48.036;15.780;2022-09-28T05:13:23;17.50;;;16.73;;
13345;SDS011;6742;48.036;15.780;2022-09-28T05:15:51;31.40;;;29.93;;
13345;SDS011;6742;48.036;15.780;2022-09-28T05:18:19;15.57;;;14.73;;
13345;SDS011;6742;48.036;15.780;2022-09-28T05:20:46;24.60;;;23.17;;
13345;SDS011;6742;48.036;15.780;2022-09-28T05:23:16;18.87;;;17.93;;
13345;SDS011;6742;48.036;15.780;2022-09-28T05:25:43;11.63;;;11.03;;
13345;SDS011;6742;48.036;15.780;2022-09-28T05:28:10;14.90;;;14.30;;
13345;SDS011;6742;48.036;15.780;2022-09-28T05:30:39;12.97;;;12.37;;
13345;SDS011;6742;48.036;15.780;2022-09-28T05:33:06;11.47;;;10.93;;
13345;SDS011;6742;48.036;15.780;2022-09-28T05:35:33;12.93;;;12.33;;
13345;SDS011;6742;48.036;15.780;2022-09-28T05:38:03;17.37;;;16.30;;
13345;SDS011;6742;48.036;15.780;2022-09-28T05:40:30;28.63;;;27.27;;
13345;SDS011;6742;48.036;15.780;2022-09-28T05:42:58;20.83;;;19.80;;
13345;SDS011;6742;48.036;15.780;2022-09-28T05:45:26;22.83;;;21.70;;
13345;SDS011;6742;48.036;15.780;2022-09-28T05:47:54;18.70;;;17.80;;
13345;SDS011;6742;48.036;15.780;2022-09-28T05:50:24;17.50;;;16.53;;
13345;SDS011;6742;48.036;15.780;2022-09-28T05:53:01;14.13;;;13.50;;
13345;SDS011;6742;48.036;15.780;2022-09-28T05:55:29;4.73;;;4.50;;
13345;SDS011;6742;48.036;15.780;2022-09-28T05:57:57;3.47;;;3.27;;
13345;SDS011;6742;48.036;15.780;2022-09-28T06:00:24;5.20;;;5.00;;
13345;SDS011;6742;48.036;15.780;2022-09-28T06:02:57;1.73;;;1.63;;
13345;SDS011;6742;48.036;15.780;2022-09-28T06:05:25;1.77;;;1.67;;
13345;SDS011;6742;48.036;15.780;2022-09-28T06:07:53;3.20;;;2.90;;
13345;SDS011;6742;48.036;15.780;2022-09-28T06:10:27;3.80;;;2.37;;
13345;SDS011;6742;48.036;15.780;2022-09-28T06:12:55;2.50;;;2.30;;
13345;SDS011;6742;48.036;15.780;2022-09-28T06:15:22;2.17;;;2.00;;
13345;SDS011;6742;48.036;15.780;2022-09-28T06:17:58;2.40;;;2.00;;
13345;SDS011;6742;48.036;15.780;2022-09-28T06:20:26;2.23;;;1.70;;
13345;SDS011;6742;48.036;15.780;2022-09-28T06:22:55;1.80;;;1.67;;
13345;SDS011;6742;48.036;15.780;2022-09-28T06:25:25;1.87;;;1.77;;
13345;SDS011;6742;48.036;15.780;2022-09-28T06:27:53;2.60;;;2.50;;
13345;SDS011;6742;48.036;15.780;2022-09-28T06:30:21;5.13;;;4.90;;
13345;SDS011;6742;48.036;15.780;2022-09-28T06:32:51;5.97;;;5.67;;
13345;SDS011;6742;48.036;15.780;2022-09-28T06:35:20;3.50;;;3.13;;
13345;SDS011;6742;48.036;15.780;2022-09-28T06:37:48;2.57;;;2.47;;
13345;SDS011;6742;48.036;15.780;2022-09-28T06:40:15;2.83;;;2.63;;
13345;SDS011;6742;48.036;15.780;2022-09-28T06:42:43;2.57;;;2.20;;
13345;SDS011;6742;48.036;15.780;2022-09-28T06:45:20;2.20;;;1.97;;
13345;SDS011;6742;48.036;15.780;2022-09-28T06:47:53;2.33;;;2.13;;
13345;SDS011;6742;48.036;15.780;2022-09-28T06:50:23;2.20;;;2.10;;
13345;SDS011;6742;48.036;15.780;2022-09-28T06:52:51;2.43;;;2.33;;
13345;SDS011;6742;48.036;15.780;2022-09-28T06:55:22;2.50;;;2.40;;
13345;SDS011;6742;48.036;15.780;2022-09-28T06:57:55;2.03;;;1.93;;
13345;SDS011;6742;48.036;15.780;2022-09-28T07:00:23;2.83;;;2.40;;
13345;SDS011;6742;48.036;15.780;2022-09-28T07:02:51;2.57;;;2.40;;
13345;SDS011;6742;48.036;15.780;2022-09-28T07:05:18;2.67;;;2.13;;
13345;SDS011;6742;48.036;15.780;2022-09-28T07:07:49;2.80;;;2.60;;
13345;SDS011;6742;48.036;15.780;2022-09-28T07:10:19;2.60;;;2.50;;
13345;SDS011;6742;48.036;15.780;2022-09-28T07:12:47;2.47;;;2.33;;
13345;SDS011;6742;48.036;15.780;2022-09-28T07:15:14;2.57;;;2.40;;
13345;SDS011;6742;48.036;15.780;2022-09-28T07:17:41;2.47;;;2.30;;
13345;SDS011;6742;48.036;15.780;2022-09-28T07:20:08;2.60;;;2.50;;
13345;SDS011;6742;48.036;15.780;2022-09-28T07:22:35;2.53;;;2.33;;
13345;SDS011;6742;48.036;15.780;2022-09-28T07:25:05;2.30;;;2.20;;
13345;SDS011;6742;48.036;15.780;2022-09-28T07:27:33;2.23;;;2.03;;
13345;SDS011;6742;48.036;15.780;2022-09-28T07:30:01;2.43;;;2.33;;
13345;SDS011;6742;48.036;15.780;2022-09-28T07:32:28;2.47;;;2.27;;
13345;SDS011;6742;48.036;15.780;2022-09-28T07:34:56;2.43;;;2.33;;
13345;SDS011;6742;48.036;15.780;2022-09-28T07:37:23;2.73;;;2.63;;
13345;SDS011;6742;48.036;15.780;2022-09-28T07:39:50;2.80;;;2.60;;
13345;SDS011;6742;48.036;15.780;2022-09-28T07:42:36;2.20;;;2.03;;
13345;SDS011;6742;48.036;15.780;2022-09-28T07:45:03;2.33;;;2.23;;
13345;SDS011;6742;48.036;15.780;2022-09-28T07:47:31;3.57;;;2.27;;
13345;SDS011;6742;48.036;15.780;2022-09-28T07:49:58;2.80;;;2.60;;
13345;SDS011;6742;48.036;15.780;2022-09-28T07:52:25;2.50;;;2.33;;
13345;SDS011;6742;48.036;15.780;2022-09-28T07:54:52;2.27;;;2.17;;
13345;SDS011;6742;48.036;15.780;2022-09-28T07:57:21;4.13;;;2.77;;
13345;SDS011;6742;48.036;15.780;2022-09-28T07:59:49;2.53;;;2.33;;
13345;SDS011;6742;48.036;15.780;2022-09-28T08:02:22;2.70;;;2.57;;
13345;SDS011;6742;48.036;15.780;2022-09-28T08:04:49;2.53;;;2.43;;
13345;SDS011;6742;48.036;15.780;2022-09-28T08:07:17;2.33;;;2.23;;
13345;SDS011;6742;48.036;15.780;2022-09-28T08:09:45;2.70;;;2.50;;
13345;SDS011;6742;48.036;15.780;2022-09-28T08:12:12;2.50;;;2.40;;
13345;SDS011;6742;48.036;15.780;2022-09-28T08:14:49;3.37;;;3.13;;
13345;SDS011;6742;48.036;15.780;2022-09-28T08:17:16;3.27;;;3.07;;
13345;SDS011;6742;48.036;15.780;2022-09-28T08:19:43;3.23;;;3.03;;
13345;SDS011;6742;48.036;15.780;2022-09-28T08:22:27;3.40;;;3.30;;
13345;SDS011;6742;48.036;15.780;2022-09-28T08:24:57;4.40;;;4.10;;
13345;SDS011;6742;48.036;15.780;2022-09-28T08:27:24;3.73;;;3.53;;
13345;SDS011;6742;48.036;15.780;2022-09-28T08:29:52;4.00;;;3.80;;
13345;SDS011;6742;48.036;15.780;2022-09-28T08:32:19;4.53;;;4.23;;
13345;SDS011;6742;48.036;15.780;2022-09-28T08:34:46;4.80;;;4.40;;
13345;SDS011;6742;48.036;15.780;2022-09-28T08:37:13;3.67;;;3.47;;
13345;SDS011;6742;48.036;15.780;2022-09-28T08:39:40;5.07;;;4.63;;
13345;SDS011;6742;48.036;15.780;2022-09-28T08:42:16;4.87;;;4.67;;
13345;SDS011;6742;48.036;15.780;2022-09-28T08:44:53;4.13;;;3.93;;
13345;SDS011;6742;48.036;15.780;2022-09-28T08:47:24;4.37;;;4.17;;
13345;SDS011;6742;48.036;15.780;2022-09-28T08:50:15;6.17;;;5.87;;
13345;SDS011;6742;48.036;15.780;2022-09-28T08:52:46;5.50;;;5.30;;
13345;SDS011;6742;48.036;15.780;2022-09-28T08:55:18;6.60;;;6.30;;
13345;SDS011;6742;48.036;15.780;2022-09-28T08:57:51;5.97;;;5.77;;
13345;SDS011;6742;48.036;15.780;2022-09-28T09:00:31;5.50;;;5.30;;
13345;SDS011;6742;48.036;15.780;2022-09-28T09:03:04;6.63;;;6.43;;
13345;SDS011;6742;48.036;15.780;2022-09-28T09:05:40;8.73;;;8.33;;
13345;SDS011;6742;48.036;15.780;2022-09-28T09:08:21;9.83;;;9.43;;
13345;SDS011;6742;48.036;15.780;2022-09-28T09:11:00;6.53;;;6.23;;
13345;SDS011;6742;48.036;15.780;2022-09-28T09:13:44;9.37;;;8.87;;
13345;SDS011;6742;48.036;15.780;2022-09-28T09:16:35;9.90;;;9.50;;
13345;SDS011;6742;48.036;15.780;2022-09-28T09:19:13;7.50;;;7.10;;
13345;SDS011;6742;48.036;15.780;2022-09-28T09:21:44;7.03;;;6.73;;
13345;SDS011;6742;48.036;15.780;2022-09-28T09:24:23;10.17;;;9.73;;
13345;SDS011;6742;48.036;15.780;2022-09-28T09:26:55;7.33;;;6.93;;
13345;SDS011;6742;48.036;15.780;2022-09-28T09:29:32;9.77;;;9.37;;
13345;SDS011;6742;48.036;15.780;2022-09-28T09:32:18;12.50;;;12.00;;
13345;SDS011;6742;48.036;15.780;2022-09-28T09:35:05;14.30;;;13.53;;
13345;SDS011;6742;48.036;15.780;2022-09-28T09:37:57;15.23;;;14.60;;
13345;SDS011;6742;48.036;15.780;2022-09-28T09:40:39;3.00;;;2.80;;
13345;SDS011;6742;48.036;15.780;2022-09-28T09:43:31;8.30;;;8.00;;
13345;SDS011;6742;48.036;15.780;2022-09-28T09:46:18;11.90;;;11.40;;
13345;SDS011;6742;48.036;15.780;2022-09-28T09:48:51;11.97;;;11.37;;
13345;SDS011;6742;48.036;15.780;2022-09-28T09:51:23;13.80;;;13.20;;
13345;SDS011;6742;48.036;15.780;2022-09-28T09:56:30;3.10;;;3.00;;
13345;SDS011;6742;48.036;15.780;2022-09-28T09:59:01;7.53;;;7.23;;
13345;SDS011;6742;48.036;15.780;2022-09-28T10:01:34;12.03;;;11.43;;
13345;SDS011;6742;48.036;15.780;2022-09-28T10:04:11;9.87;;;9.47;;
13345;SDS011;6742;48.036;15.780;2022-09-28T10:06:43;9.37;;;8.97;;
13345;SDS011;6742;48.036;15.780;2022-09-28T10:09:12;10.50;;;10.00;;
13345;SDS011;6742;48.036;15.780;2022-09-28T10:11:42;12.63;;;12.13;;
13345;SDS011;6742;48.036;15.780;2022-09-28T10:14:12;11.70;;;11.20;;
13345;SDS011;6742;48.036;15.780;2022-09-28T10:16:41;11.43;;;10.93;;
13345;SDS011;6742;48.036;15.780;2022-09-28T10:19:10;11.27;;;10.87;;
13345;SDS011;6742;48.036;15.780;2022-09-28T10:21:38;10.63;;;10.23;;
13345;SDS011;6742;48.036;15.780;2022-09-28T10:24:07;11.60;;;11.20;;
13345;SDS011;6742;48.036;15.780;2022-09-28T10:26:43;10.33;;;9.93;;
13345;SDS011;6742;48.036;15.780;2022-09-28T10:29:14;12.93;;;12.43;;
13345;SDS011;6742;48.036;15.780;2022-09-28T10:31:45;9.47;;;8.97;;
13345;SDS011;6742;48.036;15.780;2022-09-28T10:34:15;12.47;;;11.93;;
13345;SDS011;6742;48.036;15.780;2022-09-28T10:36:48;11.77;;;11.27;;
13345;SDS011;6742;48.036;15.780;2022-09-28T10:39:30;13.40;;;12.90;;
13345;SDS011;6742;48.036;15.780;2022-09-28T10:42:00;13.63;;;12.97;;
13345;SDS011;6742;48.036;15.780;2022-09-28T10:44:29;12.87;;;12.27;;
13345;SDS011;6742;48.036;15.780;2022-09-28T10:46:59;12.17;;;11.67;;
13345;SDS011;6742;48.036;15.780;2022-09-28T10:49:37;14.67;;;14.07;;
13345;SDS011;6742;48.036;15.780;2022-09-28T10:52:14;9.63;;;9.13;;
13345;SDS011;6742;48.036;15.780;2022-09-28T10:54:59;14.07;;;13.57;;
13345;SDS011;6742;48.036;15.780;2022-09-28T10:57:27;14.67;;;14.07;;
13345;SDS011;6742;48.036;15.780;2022-09-28T10:59:59;15.07;;;14.47;;
13345;SDS011;6742;48.036;15.780;2022-09-28T11:02:29;14.90;;;14.30;;
13345;SDS011;6742;48.036;15.780;2022-09-28T11:05:01;10.30;;;9.70;;
13345;SDS011;6742;48.036;15.780;2022-09-28T11:07:31;12.43;;;11.77;;
13345;SDS011;6742;48.036;15.780;2022-09-28T11:10:15;11.30;;;10.80;;
13345;SDS011;6742;48.036;15.780;2022-09-28T11:12:45;10.67;;;10.23;;
13345;SDS011;6742;48.036;15.780;2022-09-28T11:15:16;12.93;;;12.30;;
13345;SDS011;6742;48.036;15.780;2022-09-28T11:17:45;12.53;;;12.03;;
13345;SDS011;6742;48.036;15.780;2022-09-28T11:20:24;11.50;;;11.07;;
13345;SDS011;6742;48.036;15.780;2022-09-28T11:22:57;12.03;;;11.60;;
13345;SDS011;6742;48.036;15.780;2022-09-28T11:25:25;12.20;;;11.70;;
13345;SDS011;6742;48.036;15.780;2022-09-28T11:27:57;9.77;;;9.37;;
13345;SDS011;6742;48.036;15.780;2022-09-28T11:30:29;12.13;;;11.63;;
13345;SDS011;6742;48.036;15.780;2022-09-28T11:33:00;12.70;;;12.13;;
13345;SDS011;6742;48.036;15.780;2022-09-28T11:35:35;13.67;;;13.07;;
13345;SDS011;6742;48.036;15.780;2022-09-28T11:38:17;10.20;;;9.80;;
13345;SDS011;6742;48.036;15.780;2022-09-28T11:40:55;12.57;;;11.93;;
13345;SDS011;6742;48.036;15.780;2022-09-28T11:43:40;10.20;;;9.80;;
13345;SDS011;6742;48.036;15.780;2022-09-28T11:46:29;15.40;;;14.77;;
13345;SDS011;6742;48.036;15.780;2022-09-28T11:49:04;13.90;;;13.40;;
13345;SDS011;6742;48.036;15.780;2022-09-28T11:51:41;14.07;;;13.50;;
13345;SDS011;6742;48.036;15.780;2022-09-28T11:54:11;9.87;;;9.37;;
13345;SDS011;6742;48.036;15.780;2022-09-28T11:56:47;12.77;;;12.27;;
13345;SDS011;6742;48.036;15.780;2022-09-28T11:59:17;9.77;;;9.27;;
13345;SDS011;6742;48.036;15.780;2022-09-28T12:01:47;13.13;;;12.63;;
13345;SDS011;6742;48.036;15.780;2022-09-28T12:04:19;13.57;;;12.93;;
13345;SDS011;6742;48.036;15.780;2022-09-28T12:06:52;15.50;;;14.70;;
13345;SDS011;6742;48.036;15.780;2022-09-28T12:09:24;13.60;;;13.10;;
13345;SDS011;6742;48.036;15.780;2022-09-28T12:11:58;11.83;;;11.40;;
13345;SDS011;6742;48.036;15.780;2022-09-28T12:14:29;13.43;;;12.90;;
13345;SDS011;6742;48.036;15.780;2022-09-28T12:17:02;12.13;;;11.63;;
13345;SDS011;6742;48.036;15.780;2022-09-28T12:19:32;8.00;;;7.60;;
13345;SDS011;6742;48.036;15.780;2022-09-28T12:22:08;12.70;;;12.20;;
13345;SDS011;6742;48.036;15.780;2022-09-28T12:24:41;11.00;;;10.57;;
13345;SDS011;6742;48.036;15.780;2022-09-28T12:27:13;11.00;;;10.50;;
13345;SDS011;6742;48.036;15.780;2022-09-28T12:29:47;15.10;;;14.40;;
13345;SDS011;6742;48.036;15.780;2022-09-28T12:32:21;10.30;;;9.70;;
13345;SDS011;6742;48.036;15.780;2022-09-28T12:34:53;6.67;;;6.20;;
13345;SDS011;6742;48.036;15.780;2022-09-28T12:40:07;2.05;;;1.95;;
13345;SDS011;6742;48.036;15.780;2022-09-28T12:43:03;2.00;;;1.90;;
13345;SDS011;6742;48.036;15.780;2022-09-28T12:45:47;6.80;;;6.53;;
13345;SDS011;6742;48.036;15.780;2022-09-28T12:48:35;6.67;;;6.37;;
13345;SDS011;6742;48.036;15.780;2022-09-28T12:51:17;1.80;;;1.70;;
13345;SDS011;6742;48.036;15.780;2022-09-28T12:53:59;1.60;;;1.50;;
13345;SDS011;6742;48.036;15.780;2022-09-28T12:56:36;1.25;;;1.20;;
13345;SDS011;6742;48.036;15.780;2022-09-28T12:59:11;1.50;;;1.40;;
13345;SDS011;6742;48.036;15.780;2022-09-28T13:01:52;3.70;;;3.50;;
13345;SDS011;6742;48.036;15.780;2022-09-28T13:07:16;3.10;;;3.00;;
13345;SDS011;6742;48.036;15.780;2022-09-28T13:09:53;3.83;;;3.53;;
13345;SDS011;6742;48.036;15.780;2022-09-28T13:12:33;3.33;;;3.03;;
13345;SDS011;6742;48.036;15.780;2022-09-28T13:15:16;3.30;;;3.10;;
13345;SDS011;6742;48.036;15.780;2022-09-28T13:17:57;3.87;;;3.67;;
13345;SDS011;6742;48.036;15.780;2022-09-28T13:20:44;3.80;;;3.60;;
13345;SDS011;6742;48.036;15.780;2022-09-28T13:23:40;3.20;;;3.00;;
13345;SDS011;6742;48.036;15.780;2022-09-28T13:26:12;2.90;;;2.70;;
13345;SDS011;6742;48.036;15.780;2022-09-28T13:28:44;2.30;;;2.20;;
13345;SDS011;6742;48.036;15.780;2022-09-28T13:31:14;3.03;;;2.83;;
13345;SDS011;6742;48.036;15.780;2022-09-28T13:33:44;2.57;;;2.47;;
13345;SDS011;6742;48.036;15.780;2022-09-28T13:42:04;3.00;;;2.80;;
13345;SDS011;6742;48.036;15.780;2022-09-28T13:44:41;2.83;;;2.73;;
13345;SDS011;6742;48.036;15.780;2022-09-28T13:47:41;2.57;;;2.37;;
13345;SDS011;6742;48.036;15.780;2022-09-28T13:50:22;1.83;;;1.58;;
13345;SDS011;6742;48.036;15.780;2022-09-28T13:52:58;3.40;;;3.20;;
13345;SDS011;6742;48.036;15.780;2022-09-28T13:55:35;2.63;;;2.53;;
13345;SDS011;6742;48.036;15.780;2022-09-28T14:00:43;1.77;;;1.67;;
13345;SDS011;6742;48.036;15.780;2022-09-28T14:03:23;5.93;;;5.67;;
13345;SDS011;6742;48.036;15.780;2022-09-28T14:06:02;2.93;;;2.83;;
13345;SDS011;6742;48.036;15.780;2022-09-28T14:08:33;2.53;;;2.43;;
13345;SDS011;6742;48.036;15.780;2022-09-28T14:11:22;2.63;;;2.50;;
13345;SDS011;6742;48.036;15.780;2022-09-28T14:20:20;1.52;;;1.42;;
13345;SDS011;6742;48.036;15.780;2022-09-28T14:25:57;3.43;;;3.23;;
13345;SDS011;6742;48.036;15.780;2022-09-28T14:28:35;4.43;;;3.00;;
13345;SDS011;6742;48.036;15.780;2022-09-28T14:31:20;3.00;;;2.80;;
13345;SDS011;6742;48.036;15.780;2022-09-28T14:33:55;3.53;;;3.23;;
13345;SDS011;6742;48.036;15.780;2022-09-28T14:36:26;2.50;;;2.40;;
13345;SDS011;6742;48.036;15.780;2022-09-28T14:39:21;2.80;;;2.60;;
13345;SDS011;6742;48.036;15.780;2022-09-28T14:42:11;2.67;;;2.40;;
13345;SDS011;6742;48.036;15.780;2022-09-28T14:50:36;2.53;;;2.33;;
13345;SDS011;6742;48.036;15.780;2022-09-28T14:53:05;3.50;;;3.30;;
13345;SDS011;6742;48.036;15.780;2022-09-28T14:55:37;2.60;;;1.60;;
13345;SDS011;6742;48.036;15.780;2022-09-28T14:58:14;4.13;;;3.83;;
13345;SDS011;6742;48.036;15.780;2022-09-28T15:00:47;2.90;;;2.70;;
13345;SDS011;6742;48.036;15.780;2022-09-28T15:03:18;2.50;;;2.30;;
13345;SDS011;6742;48.036;15.780;2022-09-28T15:05:47;2.33;;;2.13;;
13345;SDS011;6742;48.036;15.780;2022-09-28T15:08:15;2.70;;;2.50;;
13345;SDS011;6742;48.036;15.780;2022-09-28T15:10:48;2.83;;;2.70;;
13345;SDS011;6742;48.036;15.780;2022-09-28T15:13:17;2.53;;;2.43;;
13345;SDS011;6742;48.036;15.780;2022-09-28T15:15:47;2.70;;;2.50;;
13345;SDS011;6742;48.036;15.780;2022-09-28T15:18:35;2.23;;;2.03;;
13345;SDS011;6742;48.036;15.780;2022-09-28T15:21:18;2.23;;;2.03;;
13345;SDS011;6742;48.036;15.780;2022-09-28T15:23:47;2.30;;;2.20;;
13345;SDS011;6742;48.036;15.780;2022-09-28T15:26:21;2.70;;;2.60;;
13345;SDS011;6742;48.036;15.780;2022-09-28T15:28:51;2.50;;;2.23;;
13345;SDS011;6742;48.036;15.780;2022-09-28T15:31:19;1.93;;;1.83;;
13345;SDS011;6742;48.036;15.780;2022-09-28T15:33:47;2.20;;;2.03;;
13345;SDS011;6742;48.036;15.780;2022-09-28T15:36:33;2.70;;;2.50;;
13345;SDS011;6742;48.036;15.780;2022-09-28T15:39:05;2.37;;;2.17;;
13345;SDS011;6742;48.036;15.780;2022-09-28T15:41:40;2.53;;;2.27;;
13345;SDS011;6742;48.036;15.780;2022-09-28T15:44:20;2.00;;;1.90;;
13345;SDS011;6742;48.036;15.780;2022-09-28T15:47:02;2.10;;;2.00;;